Time;durP1;ratioP1;P1;durP2;ratioP2;P2;SDS_P1;SDS_P2;PMS_P1;PMS_P2;Temp;Humidity;BMP_temperature;BMP_pressure;BME280_temperature;BME280_humidity;BME280_pressure;Samples;Min_cycle;Max_cycle;Signal;HPM_P1;HPM_P2
2023/04/20 00:01:10;;;;;;;;;;;18.10;99.90;;;;;;5086110;28;19916;-67
2023/04/20 00:03:37;;;;;;;;;;;18.10;99.90;;;;;;5092171;28;19916;-70
2023/04/20 00:06:04;;;;;;;;;;;18.10;99.90;;;;;;5059189;28;19966;-66
2023/04/20 00:08:31;;;;;;;;;;;18.10;99.90;;;;;;5087613;28;20268;-68
2023/04/20 00:10:57;;;;;;;;;;;18.00;99.90;;;;;;5086555;28;20325;-73
2023/04/20 00:13:24;;;;;;;;;;;18.00;99.90;;;;;;5096268;28;19912;-73
2023/04/20 00:15:50;;;;;;;;;;;18.00;99.90;;;;;;5096356;28;19908;-69
2023/04/20 00:18:17;;;;;;;;;;;17.90;99.90;;;;;;5093132;28;19912;-65
2023/04/20 00:20:44;;;;;;;;;;;17.90;99.90;;;;;;5076849;28;19909;-65
2023/04/20 00:23:11;;;;;;;;;;;18.00;99.90;;;;;;5088737;28;20186;-70
2023/04/20 00:25:37;;;;;;;;;;;17.90;99.90;;;;;;5079282;28;20034;-68
2023/04/20 00:28:04;;;;;;;;;;;17.90;99.90;;;;;;5087239;28;20033;-70
2023/04/20 00:30:31;;;;;;;;;;;17.90;99.90;;;;;;5092204;28;19919;-67
2023/04/20 00:32:58;;;;;;;;;;;17.90;99.90;;;;;;5070694;28;20291;-71
2023/04/20 00:35:24;;;;;;;;;;;17.90;99.90;;;;;;5095408;28;19915;-64
2023/04/20 00:37:51;;;;;;;;;;;18.00;99.90;;;;;;5086801;28;19947;-66
2023/04/20 00:40:27;;;;;;;;;;;17.90;99.90;;;;;;5079152;27;19920;-75
2023/04/20 00:42:54;;;;;;;;;;;17.90;99.90;;;;;;5072366;28;20265;-69
2023/04/20 00:45:21;;;;;;;;;;;18.00;99.90;;;;;;5064569;28;19918;-67
2023/04/20 00:47:47;;;;;;;;;;;18.00;99.90;;;;;;5073453;28;19917;-75
2023/04/20 00:50:15;;;;;;;;;;;18.00;99.90;;;;;;5071226;28;20037;-72
2023/04/20 00:52:41;;;;;;;;;;;18.00;99.90;;;;;;5071980;28;19918;-74
2023/04/20 00:55:08;;;;;;;;;;;17.90;99.90;;;;;;5072328;28;19916;-71
2023/04/20 00:57:35;;;;;;;;;;;18.00;99.90;;;;;;5066415;28;19913;-65
2023/04/20 01:00:02;;;;;;;;;;;18.00;99.90;;;;;;5074009;28;19920;-73
2023/04/20 01:02:29;;;;;;;;;;;18.00;99.90;;;;;;5069602;28;19908;-65
2023/04/20 01:04:55;;;;;;;;;;;18.10;99.90;;;;;;5073898;28;19913;-75
2023/04/20 01:07:22;;;;;;;;;;;18.20;99.90;;;;;;5071050;28;19912;-73
2023/04/20 01:09:49;;;;;;;;;;;18.20;99.90;;;;;;5070371;28;20010;-74
2023/04/20 01:12:15;;;;;;;;;;;18.20;99.90;;;;;;5065829;28;19970;-66
2023/04/20 01:14:42;;;;;;;;;;;18.30;99.90;;;;;;5066686;28;19920;-64
2023/04/20 01:17:09;;;;;;;;;;;18.30;99.90;;;;;;5073806;28;19909;-63
2023/04/20 01:19:35;;;;;;;;;;;18.30;99.90;;;;;;5068882;28;19931;-70
2023/04/20 01:22:02;;;;;;;;;;;18.40;99.90;;;;;;5073818;28;19977;-65
2023/04/20 01:24:29;;;;;;;;;;;18.40;99.90;;;;;;5069650;28;19943;-71
2023/04/20 01:26:56;;;;;;;;;;;18.40;99.90;;;;;;5072952;28;19916;-64
2023/04/20 01:29:23;;;;;;;;;;;18.40;99.90;;;;;;5070395;28;19923;-72
2023/04/20 01:31:50;;;;;;;;;;;18.60;99.90;;;;;;5071692;28;20003;-73
2023/04/20 01:34:17;;;;;;;;;;;18.60;99.90;;;;;;5071805;28;19962;-63
2023/04/20 01:36:44;;;;;;;;;;;18.80;99.90;;;;;;5070572;28;20583;-63
2023/04/20 01:39:11;;;;;;;;;;;18.90;99.90;;;;;;5077253;28;19932;-69
2023/04/20 01:41:38;;;;;;;;;;;19.00;99.90;;;;;;5089385;28;20328;-74
2023/04/20 01:44:05;;;;;;;;;;;19.00;99.90;;;;;;5095987;28;19974;-71
2023/04/20 01:46:31;;;;;;;;;;;19.10;99.90;;;;;;5090547;28;19951;-71
2023/04/20 01:48:58;;;;;;;;;;;19.10;99.90;;;;;;5092263;28;19997;-70
2023/04/20 01:51:25;;;;;;;;;;;19.20;99.90;;;;;;5079018;28;19916;-72
2023/04/20 01:53:51;;;;;;;;;;;19.30;99.90;;;;;;5063195;28;19912;-67
2023/04/20 01:56:18;;;;;;;;;;;19.30;99.90;;;;;;5078175;28;19919;-64
2023/04/20 01:58:45;;;;;;;;;;;19.20;99.90;;;;;;5075271;28;19916;-76
2023/04/20 02:01:11;;;;;;;;;;;19.10;99.90;;;;;;5079673;28;19915;-66
2023/04/20 02:03:38;;;;;;;;;;;19.10;99.90;;;;;;5075794;28;19918;-71
2023/04/20 02:06:05;;;;;;;;;;;19.10;99.90;;;;;;5078765;28;20262;-69
2023/04/20 02:08:32;;;;;;;;;;;19.10;99.90;;;;;;5076874;28;20341;-65
2023/04/20 02:10:58;;;;;;;;;;;19.10;99.90;;;;;;5077587;28;19915;-77
2023/04/20 02:13:25;;;;;;;;;;;19.30;99.90;;;;;;5077712;28;19911;-71
2023/04/20 02:15:52;;;;;;;;;;;19.60;99.90;;;;;;5059380;28;20368;-65
2023/04/20 02:18:20;;;;;;;;;;;19.70;99.90;;;;;;5077607;28;19916;-63
2023/04/20 02:20:46;;;;;;;;;;;19.90;99.90;;;;;;5072768;28;20026;-74
2023/04/20 02:23:13;;;;;;;;;;;20.00;99.90;;;;;;5071104;28;20558;-64
2023/04/20 02:25:40;;;;;;;;;;;20.10;99.90;;;;;;5072133;28;20333;-63
2023/04/20 02:28:06;;;;;;;;;;;20.20;99.90;;;;;;5057331;28;19913;-63
2023/04/20 02:30:33;;;;;;;;;;;20.40;99.90;;;;;;5068653;28;19915;-70
2023/04/20 02:33:00;;;;;;;;;;;20.60;99.90;;;;;;5065270;28;19919;-69
2023/04/20 02:35:26;;;;;;;;;;;20.80;99.90;;;;;;5072883;28;19915;-71
2023/04/20 02:37:53;;;;;;;;;;;20.80;99.90;;;;;;5076446;28;19951;-62
2023/04/20 02:40:20;;;;;;;;;;;20.90;99.90;;;;;;5078129;28;20013;-67
2023/04/20 02:42:46;;;;;;;;;;;20.80;99.90;;;;;;5076774;28;19908;-71
2023/04/20 02:45:13;;;;;;;;;;;20.70;99.90;;;;;;5090692;28;19908;-72
2023/04/20 02:47:40;;;;;;;;;;;20.60;99.90;;;;;;5097076;28;20424;-76
2023/04/20 02:50:08;;;;;;;;;;;20.50;99.90;;;;;;5064985;28;19916;-69
2023/04/20 02:52:35;;;;;;;;;;;20.50;99.90;;;;;;5077026;28;19943;-60
2023/04/20 02:55:01;;;;;;;;;;;20.30;99.90;;;;;;5077211;28;19951;-66
2023/04/20 02:57:28;;;;;;;;;;;20.10;99.90;;;;;;5078156;28;19908;-66
2023/04/20 02:59:55;;;;;;;;;;;20.00;99.90;;;;;;5077077;28;19926;-64
2023/04/20 03:02:22;;;;;;;;;;;19.90;99.90;;;;;;5077095;28;19965;-76
2023/04/20 03:04:48;;;;;;;;;;;19.70;99.90;;;;;;5077043;28;19957;-64
2023/04/20 03:07:16;;;;;;;;;;;19.70;99.90;;;;;;5076971;28;19939;-63
2023/04/20 03:09:43;;;;;;;;;;;19.60;99.90;;;;;;5075283;28;19920;-69
2023/04/20 03:12:10;;;;;;;;;;;19.60;99.90;;;;;;5072634;28;19919;-71
2023/04/20 03:14:36;;;;;;;;;;;19.50;99.90;;;;;;5075755;28;19919;-68
2023/04/20 03:17:03;;;;;;;;;;;19.40;99.90;;;;;;5077200;28;20406;-62
2023/04/20 03:19:29;;;;;;;;;;;19.30;99.90;;;;;;5071358;28;19920;-73
2023/04/20 03:21:56;;;;;;;;;;;19.20;99.90;;;;;;5067006;28;19912;-67
2023/04/20 03:24:23;;;;;;;;;;;19.20;99.90;;;;;;5071699;28;19912;-63
2023/04/20 03:26:49;;;;;;;;;;;19.20;99.90;;;;;;5080514;28;20388;-61
2023/04/20 03:29:18;;;;;;;;;;;19.10;99.90;;;;;;5075657;28;19912;-62
2023/04/20 03:31:45;;;;;;;;;;;19.10;99.90;;;;;;5073616;28;19978;-62
2023/04/20 03:34:12;;;;;;;;;;;19.00;99.90;;;;;;5070263;28;19923;-64
2023/04/20 03:36:39;;;;;;;;;;;18.90;99.90;;;;;;5064474;28;19919;-61
2023/04/20 03:39:06;;;;;;;;;;;18.90;99.90;;;;;;5071423;28;19920;-65
2023/04/20 03:41:32;;;;;;;;;;;18.90;99.90;;;;;;5078348;28;20284;-68
2023/04/20 03:43:59;;;;;;;;;;;18.90;99.90;;;;;;5074668;28;19927;-76
2023/04/20 03:46:26;;;;;;;;;;;18.90;99.90;;;;;;5068286;28;20009;-70
2023/04/20 03:48:53;;;;;;;;;;;19.00;99.90;;;;;;5075953;28;19912;-64
2023/04/20 03:51:19;;;;;;;;;;;18.90;99.90;;;;;;5076809;28;19912;-76
2023/04/20 03:53:46;;;;;;;;;;;18.90;99.90;;;;;;5077727;28;20006;-68
2023/04/20 03:56:12;;;;;;;;;;;18.90;99.90;;;;;;5073515;28;19991;-66
2023/04/20 03:58:39;;;;;;;;;;;19.00;99.90;;;;;;5075825;28;20007;-62
2023/04/20 04:01:11;;;;;;;;;;;19.00;99.90;;;;;;5073955;28;19919;-62
2023/04/20 04:03:38;;;;;;;;;;;19.00;99.90;;;;;;5078593;28;19912;-72
2023/04/20 04:06:06;;;;;;;;;;;19.00;99.90;;;;;;5075357;28;19916;-62
2023/04/20 04:08:32;;;;;;;;;;;19.00;99.90;;;;;;5076483;28;19915;-77
2023/04/20 04:11:00;;;;;;;;;;;19.00;99.90;;;;;;5073379;28;20709;-62
2023/04/20 04:13:26;;;;;;;;;;;19.00;99.90;;;;;;5075438;28;20056;-64
2023/04/20 04:15:53;;;;;;;;;;;19.00;99.90;;;;;;5077355;28;19912;-65
2023/04/20 04:18:20;;;;;;;;;;;19.00;99.90;;;;;;5074513;28;20003;-62
2023/04/20 04:20:47;;;;;;;;;;;19.00;99.90;;;;;;5075976;28;20372;-62
2023/04/20 04:23:14;;;;;;;;;;;18.90;99.90;;;;;;5074548;28;19918;-66
2023/04/20 04:25:41;;;;;;;;;;;18.90;99.90;;;;;;5077262;28;19912;-65
2023/04/20 04:28:07;;;;;;;;;;;18.90;99.90;;;;;;5073854;28;19912;-63
2023/04/20 04:30:34;;;;;;;;;;;18.90;99.90;;;;;;5075488;28;20900;-64
2023/04/20 04:33:03;;;;;;;;;;;18.80;99.90;;;;;;5074965;28;19908;-64
2023/04/20 04:35:30;;;;;;;;;;;19.00;99.90;;;;;;5075919;28;19912;-68
2023/04/20 04:37:57;;;;;;;;;;;19.00;99.90;;;;;;5076150;28;19916;-67
2023/04/20 04:40:24;;;;;;;;;;;19.00;99.90;;;;;;5074187;28;19920;-69
2023/04/20 04:42:51;;;;;;;;;;;19.20;99.90;;;;;;5076647;28;19915;-62
2023/04/20 04:45:18;;;;;;;;;;;19.30;99.90;;;;;;5074049;28;20360;-68
2023/04/20 04:47:45;;;;;;;;;;;19.30;99.90;;;;;;5076582;28;19909;-64
2023/04/20 04:50:11;;;;;;;;;;;19.50;99.90;;;;;;5074391;28;20416;-66
2023/04/20 04:52:38;;;;;;;;;;;19.80;99.90;;;;;;5076198;28;19908;-71
2023/04/20 04:55:07;;;;;;;;;;;20.10;99.90;;;;;;5073809;28;20339;-66
2023/04/20 04:57:35;;;;;;;;;;;20.30;99.90;;;;;;5076038;28;19991;-65
2023/04/20 05:00:03;;;;;;;;;;;20.50;99.90;;;;;;5074825;28;19920;-63
2023/04/20 05:02:29;;;;;;;;;;;20.60;99.90;;;;;;5075081;28;20365;-63
2023/04/20 05:04:56;;;;;;;;;;;20.60;99.90;;;;;;5075561;28;19919;-64
2023/04/20 05:07:23;;;;;;;;;;;20.40;99.90;;;;;;5072586;28;20011;-63
2023/04/20 05:09:50;;;;;;;;;;;20.20;99.90;;;;;;5075383;28;19908;-67
2023/04/20 05:12:18;;;;;;;;;;;20.20;99.90;;;;;;5073212;28;19912;-69
2023/04/20 05:14:45;;;;;;;;;;;20.10;99.90;;;;;;5074843;28;19912;-70
2023/04/20 05:17:12;;;;;;;;;;;20.20;99.90;;;;;;5073239;28;19908;-61
2023/04/20 05:19:39;;;;;;;;;;;20.10;99.90;;;;;;5075300;28;19916;-62
2023/04/20 05:22:05;;;;;;;;;;;20.10;99.90;;;;;;5075728;28;19916;-63
2023/04/20 05:24:32;;;;;;;;;;;20.10;99.90;;;;;;5074751;28;20006;-62
2023/04/20 05:26:59;;;;;;;;;;;19.90;99.90;;;;;;5079118;28;19915;-68
2023/04/20 05:29:25;;;;;;;;;;;19.90;99.90;;;;;;5076898;28;20128;-69
2023/04/20 05:31:52;;;;;;;;;;;20.00;99.90;;;;;;5077581;28;19931;-63
2023/04/20 05:34:19;;;;;;;;;;;19.90;99.90;;;;;;5078546;28;20303;-69
2023/04/20 05:36:46;;;;;;;;;;;19.80;99.90;;;;;;5080694;28;19948;-69
2023/04/20 05:39:13;;;;;;;;;;;19.60;99.90;;;;;;5077655;28;20380;-61
2023/04/20 05:41:40;;;;;;;;;;;19.60;99.90;;;;;;5061693;28;19916;-62
2023/04/20 05:44:06;;;;;;;;;;;19.50;99.90;;;;;;5079352;28;19919;-61
2023/04/20 05:46:33;;;;;;;;;;;19.40;99.90;;;;;;5077988;28;19915;-63
2023/04/20 05:48:59;;;;;;;;;;;19.40;99.90;;;;;;5079250;28;20376;-65
2023/04/20 05:51:29;;;;;;;;;;;19.30;99.90;;;;;;5077766;28;19909;-65
2023/04/20 05:53:55;;;;;;;;;;;19.30;99.90;;;;;;5079806;28;20002;-66
2023/04/20 05:56:22;;;;;;;;;;;19.20;99.90;;;;;;5077403;28;20061;-66
2023/04/20 05:58:49;;;;;;;;;;;19.30;99.90;;;;;;5078347;28;20567;-67
2023/04/20 06:01:16;;;;;;;;;;;19.20;99.90;;;;;;5078497;28;19912;-68
2023/04/20 06:03:42;;;;;;;;;;;19.20;99.90;;;;;;5077940;28;20261;-63
2023/04/20 06:06:09;;;;;;;;;;;19.40;99.90;;;;;;5079057;28;19908;-63
2023/04/20 06:08:36;;;;;;;;;;;19.20;99.90;;;;;;5076701;28;19991;-62
2023/04/20 06:11:02;;;;;;;;;;;19.20;99.90;;;;;;5078328;28;19904;-67
2023/04/20 06:13:29;;;;;;;;;;;19.20;99.90;;;;;;5078215;28;19912;-66
2023/04/20 06:15:56;;;;;;;;;;;19.10;99.90;;;;;;5077787;28;19924;-61
2023/04/20 06:18:22;;;;;;;;;;;19.10;99.90;;;;;;5077605;28;20371;-66
2023/04/20 06:20:49;;;;;;;;;;;19.00;99.90;;;;;;5076361;28;19915;-62
2023/04/20 06:23:16;;;;;;;;;;;18.90;99.90;;;;;;5078770;28;19965;-62
2023/04/20 06:25:42;;;;;;;;;;;18.90;99.90;;;;;;5077169;28;19912;-61
2023/04/20 06:28:09;;;;;;;;;;;18.90;99.90;;;;;;5078290;28;20118;-68
2023/04/20 06:30:36;;;;;;;;;;;18.90;99.90;;;;;;5075976;28;19965;-61
2023/04/20 06:33:03;;;;;;;;;;;18.80;99.90;;;;;;5078571;28;20000;-70
2023/04/20 06:35:29;;;;;;;;;;;18.70;99.90;;;;;;5077511;28;19916;-69
2023/04/20 06:37:56;;;;;;;;;;;18.60;99.90;;;;;;5058256;28;19951;-73
2023/04/20 06:40:26;;;;;;;;;;;18.50;99.90;;;;;;5077315;28;19927;-63
2023/04/20 06:42:52;;;;;;;;;;;18.50;99.90;;;;;;5076662;28;19908;-69
2023/04/20 06:45:19;;;;;;;;;;;18.40;99.90;;;;;;5078404;28;20014;-68
2023/04/20 06:47:46;;;;;;;;;;;18.40;99.90;;;;;;5076173;28;19912;-61
2023/04/20 06:50:12;;;;;;;;;;;18.30;99.90;;;;;;5078068;28;19915;-70
2023/04/20 06:52:39;;;;;;;;;;;18.30;99.90;;;;;;5076654;28;19966;-69
2023/04/20 06:55:07;;;;;;;;;;;18.20;99.90;;;;;;5078655;28;19995;-64
2023/04/20 06:57:34;;;;;;;;;;;18.20;99.90;;;;;;5077898;28;19908;-64
2023/04/20 07:00:00;;;;;;;;;;;18.20;99.90;;;;;;5076583;28;19922;-68
2023/04/20 07:02:27;;;;;;;;;;;18.10;99.90;;;;;;5077878;28;20361;-67
2023/04/20 07:05:00;;;;;;;;;;;18.10;99.90;;;;;;5078050;28;20249;-71
2023/04/20 07:07:26;;;;;;;;;;;18.10;99.90;;;;;;5077585;28;19908;-70
2023/04/20 07:09:53;;;;;;;;;;;18.10;99.90;;;;;;5076772;28;19913;-61
2023/04/20 07:12:19;;;;;;;;;;;18.10;99.90;;;;;;5077656;28;19912;-63
2023/04/20 07:14:46;;;;;;;;;;;18.00;99.90;;;;;;5077853;28;19905;-71
2023/04/20 07:17:13;;;;;;;;;;;18.10;99.90;;;;;;5075964;28;19923;-60
2023/04/20 07:19:40;;;;;;;;;;;18.00;99.90;;;;;;5074982;28;19916;-62
2023/04/20 07:22:06;;;;;;;;;;;18.00;99.90;;;;;;5075709;28;20434;-63
2023/04/20 07:24:33;;;;;;;;;;;18.00;99.90;;;;;;5076356;28;19921;-61
2023/04/20 07:27:00;;;;;;;;;;;17.90;99.90;;;;;;5076022;28;20292;-60
2023/04/20 07:29:26;;;;;;;;;;;17.90;99.90;;;;;;5076976;28;19919;-63
2023/04/20 07:31:53;;;;;;;;;;;17.90;99.90;;;;;;5076111;28;19908;-64
2023/04/20 07:34:20;;;;;;;;;;;17.90;99.90;;;;;;5076302;28;19918;-68
2023/04/20 07:36:47;;;;;;;;;;;17.90;99.90;;;;;;5076343;28;20300;-70
2023/04/20 07:39:14;;;;;;;;;;;17.90;99.90;;;;;;5075757;28;20000;-78
2023/04/20 07:41:41;;;;;;;;;;;17.80;99.90;;;;;;5057428;28;19987;-73
2023/04/20 07:44:08;;;;;;;;;;;17.90;99.90;;;;;;5072545;28;19916;-67
2023/04/20 07:46:35;;;;;;;;;;;17.80;99.90;;;;;;5076278;28;20050;-67
2023/04/20 07:49:01;;;;;;;;;;;17.80;99.90;;;;;;5075222;28;19953;-65
2023/04/20 07:51:29;;;;;;;;;;;17.80;99.90;;;;;;5076921;28;20322;-65
2023/04/20 07:53:56;;;;;;;;;;;17.80;99.90;;;;;;5076835;28;20010;-73
2023/04/20 07:56:22;;;;;;;;;;;17.70;99.90;;;;;;5076401;28;20061;-71
2023/04/20 07:58:49;;;;;;;;;;;17.70;99.90;;;;;;5076266;28;19919;-63
2023/04/20 08:01:16;;;;;;;;;;;17.60;99.90;;;;;;5075515;28;19935;-64
2023/04/20 08:03:42;;;;;;;;;;;17.60;99.90;;;;;;5076397;28;19914;-65
2023/04/20 08:06:09;;;;;;;;;;;17.50;99.90;;;;;;5075417;28;19904;-63
2023/04/20 08:08:36;;;;;;;;;;;17.50;99.90;;;;;;5075380;28;19994;-71
2023/04/20 08:11:02;;;;;;;;;;;17.50;99.90;;;;;;5076176;28;19999;-61
2023/04/20 08:13:29;;;;;;;;;;;17.50;99.90;;;;;;5074103;28;20743;-69
2023/04/20 08:15:56;;;;;;;;;;;17.50;99.90;;;;;;5073477;28;20492;-65
2023/04/20 08:18:22;;;;;;;;;;;17.60;99.90;;;;;;5074944;28;19912;-66
2023/04/20 08:20:50;;;;;;;;;;;17.60;99.90;;;;;;5075719;28;20467;-65
2023/04/20 08:23:16;;;;;;;;;;;17.60;99.90;;;;;;5076285;28;20011;-62
2023/04/20 08:25:43;;;;;;;;;;;17.60;99.90;;;;;;5074675;28;20700;-62
2023/04/20 08:28:10;;;;;;;;;;;17.60;99.90;;;;;;5075646;28;19908;-61
2023/04/20 08:30:39;;;;;;;;;;;17.60;99.90;;;;;;5075397;28;20377;-61
2023/04/20 08:33:06;;;;;;;;;;;17.70;99.90;;;;;;5076126;28;19921;-61
2023/04/20 08:35:32;;;;;;;;;;;17.60;99.90;;;;;;5075461;28;19935;-67
2023/04/20 08:37:59;;;;;;;;;;;17.60;99.90;;;;;;5076808;28;20330;-66
2023/04/20 08:40:27;;;;;;;;;;;17.60;99.90;;;;;;5074396;28;20360;-66
2023/04/20 08:42:53;;;;;;;;;;;17.50;99.90;;;;;;5076144;28;20070;-64
2023/04/20 08:45:24;;;;;;;;;;;17.50;99.90;;;;;;5075597;28;19915;-63
2023/04/20 08:47:53;;;;;;;;;;;17.50;99.90;;;;;;5075756;28;19912;-69
2023/04/20 08:50:20;;;;;;;;;;;17.50;99.90;;;;;;5075512;28;19920;-62
2023/04/20 08:52:47;;;;;;;;;;;17.40;99.90;;;;;;5075406;28;19943;-63
2023/04/20 08:55:17;;;;;;;;;;;17.40;99.90;;;;;;5075493;28;19998;-69
2023/04/20 08:57:44;;;;;;;;;;;17.40;99.90;;;;;;5075624;28;19914;-65
2023/04/20 09:00:11;;;;;;;;;;;17.50;99.90;;;;;;5076249;28;19927;-65
2023/04/20 09:02:57;;;;;;;;;;;17.50;99.90;;;;;;5080938;28;19923;-63
2023/04/20 09:05:28;;;;;;;;;;;17.50;99.90;;;;;;5079187;28;19925;-68
2023/04/20 09:07:56;;;;;;;;;;;17.60;99.90;;;;;;5080414;28;20276;-63
2023/04/20 09:10:23;;;;;;;;;;;17.60;99.90;;;;;;5078561;28;19908;-63
2023/04/20 09:12:50;;;;;;;;;;;17.60;99.90;;;;;;5079888;28;19918;-68
2023/04/20 09:15:24;;;;;;;;;;;17.70;99.90;;;;;;5059414;28;19943;-68
2023/04/20 09:17:51;;;;;;;;;;;17.70;99.90;;;;;;5079778;28;19919;-68
2023/04/20 09:20:26;;;;;;;;;;;17.80;99.90;;;;;;5077901;28;19924;-65
2023/04/20 09:22:53;;;;;;;;;;;17.80;99.90;;;;;;5078909;28;20402;-65
2023/04/20 09:25:20;;;;;;;;;;;17.80;99.90;;;;;;5077633;28;19908;-60
2023/04/20 09:27:59;;;;;;;;;;;17.90;99.90;;;;;;5080529;28;20049;-69
2023/04/20 09:30:36;;;;;;;;;;;17.90;99.90;;;;;;5077765;28;19954;-65
2023/04/20 09:33:03;;;;;;;;;;;17.90;99.90;;;;;;5078247;28;20386;-63
2023/04/20 09:35:30;;;;;;;;;;;18.00;99.90;;;;;;5078814;28;19948;-67
2023/04/20 09:37:56;;;;;;;;;;;17.90;99.90;;;;;;5079003;28;20017;-70
2023/04/20 09:40:25;;;;;;;;;;;18.00;99.90;;;;;;5076659;28;19930;-71
2023/04/20 09:42:55;;;;;;;;;;;18.00;99.90;;;;;;5076734;28;19916;-63
2023/04/20 09:45:22;;;;;;;;;;;18.00;99.90;;;;;;5077220;28;19920;-64
2023/04/20 09:47:49;;;;;;;;;;;17.90;99.90;;;;;;5079665;28;20324;-62
2023/04/20 09:50:16;;;;;;;;;;;18.00;99.90;;;;;;5077136;28;20044;-64
2023/04/20 09:52:43;;;;;;;;;;;17.90;99.90;;;;;;5077851;28;19992;-68
2023/04/20 09:55:10;;;;;;;;;;;17.90;99.90;;;;;;5078644;28;19909;-70
2023/04/20 09:57:38;;;;;;;;;;;18.00;99.90;;;;;;5074460;28;20181;-64
2023/04/20 10:00:05;;;;;;;;;;;18.00;99.90;;;;;;5078784;28;19920;-70
2023/04/20 10:02:32;;;;;;;;;;;18.00;99.90;;;;;;5076482;28;19919;-63
2023/04/20 10:05:02;;;;;;;;;;;17.90;99.90;;;;;;5079212;28;19912;-64
2023/04/20 10:07:30;;;;;;;;;;;18.00;99.90;;;;;;5076398;28;19969;-68
2023/04/20 10:10:04;;;;;;;;;;;18.00;99.90;;;;;;5077689;28;19914;-65
2023/04/20 10:12:31;;;;;;;;;;;18.00;99.90;;;;;;5062110;28;20424;-66
2023/04/20 10:15:00;;;;;;;;;;;18.10;99.90;;;;;;5089167;28;19922;-61
2023/04/20 10:17:30;;;;;;;;;;;18.10;99.90;;;;;;5085541;28;19908;-62
2023/04/20 10:19:57;;;;;;;;;;;18.10;99.90;;;;;;5087199;28;19923;-62
2023/04/20 10:22:32;;;;;;;;;;;18.00;99.90;;;;;;5086759;28;19970;-62
2023/04/20 10:25:00;;;;;;;;;;;18.00;99.90;;;;;;5084643;28;20341;-66
2023/04/20 10:27:26;;;;;;;;;;;18.00;99.90;;;;;;5075616;28;19912;-62
2023/04/20 10:29:53;;;;;;;;;;;17.90;99.90;;;;;;5077205;28;19909;-65
2023/04/20 10:32:27;;;;;;;;;;;18.00;99.90;;;;;;5077939;28;19916;-66
2023/04/20 10:35:09;;;;;;;;;;;18.00;99.90;;;;;;5079123;28;19919;-66
2023/04/20 10:37:46;;;;;;;;;;;18.00;99.90;;;;;;5063546;28;19916;-62
2023/04/20 10:40:12;;;;;;;;;;;18.00;99.90;;;;;;5076906;28;19920;-64
2023/04/20 10:42:45;;;;;;;;;;;18.00;99.90;;;;;;5066057;28;19912;-62
2023/04/20 10:45:12;;;;;;;;;;;18.00;99.90;;;;;;5072290;28;20020;-64
2023/04/20 10:47:43;;;;;;;;;;;18.00;99.90;;;;;;5073470;28;19977;-66
2023/04/20 10:50:12;;;;;;;;;;;18.00;99.90;;;;;;5077921;28;19908;-68
2023/04/20 10:52:39;;;;;;;;;;;18.00;99.90;;;;;;5072758;28;19919;-69
2023/04/20 10:55:07;;;;;;;;;;;17.90;99.90;;;;;;5078081;28;19912;-68
2023/04/20 10:57:33;;;;;;;;;;;17.80;99.90;;;;;;5074279;28;19912;-70
2023/04/20 11:00:12;;;;;;;;;;;17.80;99.90;;;;;;5076258;28;19921;-64
2023/04/20 11:02:45;;;;;;;;;;;17.80;99.90;;;;;;5073557;28;19912;-65
2023/04/20 11:05:12;;;;;;;;;;;17.80;99.90;;;;;;5086250;28;19912;-69
2023/04/20 11:07:46;;;;;;;;;;;17.70;99.90;;;;;;5087796;28;19916;-61
2023/04/20 11:10:13;;;;;;;;;;;17.60;99.90;;;;;;5082210;28;19919;-66
2023/04/20 11:12:39;;;;;;;;;;;17.70;99.90;;;;;;5085898;28;19916;-69
2023/04/20 11:15:08;;;;;;;;;;;17.60;99.90;;;;;;5086685;28;19965;-70
2023/04/20 11:17:35;;;;;;;;;;;17.50;99.90;;;;;;5081582;28;19919;-64
2023/04/20 11:20:13;;;;;;;;;;;17.40;99.90;;;;;;5083177;28;19924;-68
2023/04/20 11:22:40;;;;;;;;;;;17.40;99.90;;;;;;5085861;28;20235;-62
2023/04/20 11:25:08;;;;;;;;;;;17.40;99.90;;;;;;5082449;28;19923;-68
2023/04/20 11:27:36;;;;;;;;;;;17.20;99.90;;;;;;5083978;28;20275;-70
2023/04/20 11:30:06;;;;;;;;;;;17.20;99.90;;;;;;5084749;28;19930;-68
2023/04/20 11:32:34;;;;;;;;;;;17.20;99.90;;;;;;5079791;28;19923;-70
2023/04/20 11:35:04;;;;;;;;;;;17.20;99.90;;;;;;5081515;28;20003;-70
2023/04/20 11:37:31;;;;;;;;;;;17.20;99.90;;;;;;5085218;28;19919;-69
2023/04/20 11:40:02;;;;;;;;;;;17.20;99.90;;;;;;5081778;28;20022;-70
2023/04/20 11:42:29;;;;;;;;;;;17.20;99.90;;;;;;5074187;28;20100;-68
2023/04/20 11:44:56;;;;;;;;;;;17.10;99.90;;;;;;5074226;28;19981;-67
2023/04/20 11:47:23;;;;;;;;;;;17.10;99.90;;;;;;5073730;28;19960;-66
2023/04/20 11:49:50;;;;;;;;;;;17.10;99.90;;;;;;5076588;28;19914;-65
2023/04/20 11:52:16;;;;;;;;;;;17.10;99.90;;;;;;5073839;28;19912;-67
2023/04/20 11:54:43;;;;;;;;;;;17.10;99.90;;;;;;5072906;28;20341;-62
2023/04/20 11:57:10;;;;;;;;;;;17.20;99.90;;;;;;5073564;28;19922;-70
2023/04/20 11:59:36;;;;;;;;;;;17.20;99.90;;;;;;5076100;28;19924;-65
2023/04/20 12:02:04;;;;;;;;;;;17.20;99.90;;;;;;5070730;28;20368;-63
2023/04/20 12:04:31;;;;;;;;;;;17.30;99.90;;;;;;5069674;28;19927;-71
2023/04/20 12:06:59;;;;;;;;;;;17.30;99.90;;;;;;5073706;28;20085;-64
2023/04/20 12:09:25;;;;;;;;;;;17.30;99.90;;;;;;5072973;28;19916;-64
2023/04/20 12:11:52;;;;;;;;;;;17.30;99.90;;;;;;5075318;28;19953;-65
2023/04/20 12:14:19;;;;;;;;;;;17.30;99.90;;;;;;5072559;28;19919;-69
2023/04/20 12:16:46;;;;;;;;;;;17.30;99.90;;;;;;5057433;28;19948;-64
2023/04/20 12:19:13;;;;;;;;;;;17.20;99.90;;;;;;5072393;28;19920;-62
2023/04/20 12:21:39;;;;;;;;;;;17.20;99.90;;;;;;5074206;28;20021;-64
2023/04/20 12:24:06;;;;;;;;;;;17.20;99.90;;;;;;5071320;28;19954;-63
2023/04/20 12:26:35;;;;;;;;;;;17.10;99.90;;;;;;5069655;28;20405;-66
2023/04/20 12:29:01;;;;;;;;;;;17.10;99.90;;;;;;5071423;28;19919;-67
2023/04/20 12:31:28;;;;;;;;;;;17.10;99.90;;;;;;5076251;28;19915;-65
2023/04/20 12:33:55;;;;;;;;;;;17.00;99.90;;;;;;5074242;28;19912;-69
2023/04/20 12:36:21;;;;;;;;;;;17.00;99.90;;;;;;5070816;28;20018;-69
2023/04/20 12:38:51;;;;;;;;;;;17.00;99.90;;;;;;5073093;28;20022;-64
2023/04/20 12:41:18;;;;;;;;;;;17.00;99.90;;;;;;5067919;28;19920;-67
2023/04/20 12:43:44;;;;;;;;;;;17.00;99.90;;;;;;5074007;28;19944;-68
2023/04/20 12:46:11;;;;;;;;;;;17.00;99.90;;;;;;5071447;28;20215;-68
2023/04/20 12:48:38;;;;;;;;;;;16.90;99.90;;;;;;5072982;28;19975;-65
2023/04/20 12:51:04;;;;;;;;;;;16.90;99.90;;;;;;5072879;28;20426;-70
2023/04/20 12:53:31;;;;;;;;;;;16.90;99.90;;;;;;5073763;28;20381;-71
2023/04/20 12:55:58;;;;;;;;;;;16.90;99.90;;;;;;5074275;28;19928;-69
2023/04/20 12:58:25;;;;;;;;;;;16.90;99.90;;;;;;5072272;28;20059;-69
2023/04/20 13:00:51;;;;;;;;;;;16.90;99.90;;;;;;5074487;28;20288;-70
2023/04/20 13:03:18;;;;;;;;;;;16.80;99.90;;;;;;5071914;28;19931;-64
2023/04/20 13:05:45;;;;;;;;;;;16.70;99.90;;;;;;5072879;28;19923;-65
2023/04/20 13:08:12;;;;;;;;;;;16.70;99.90;;;;;;5073175;28;19915;-68
2023/04/20 13:10:40;;;;;;;;;;;16.70;99.90;;;;;;5073499;28;20052;-65
2023/04/20 13:13:08;;;;;;;;;;;16.70;99.90;;;;;;5073957;28;19912;-66
2023/04/20 13:15:35;;;;;;;;;;;16.70;99.90;;;;;;5073903;28;19908;-64
2023/04/20 13:18:02;;;;;;;;;;;16.70;99.90;;;;;;5058436;28;19912;-67
2023/04/20 13:20:29;;;;;;;;;;;16.80;99.90;;;;;;5074867;28;19943;-71
2023/04/20 13:22:59;;;;;;;;;;;16.80;99.90;;;;;;5075537;28;19908;-72
2023/04/20 13:25:27;;;;;;;;;;;16.80;99.90;;;;;;5073075;28;19920;-66
2023/04/20 13:27:54;;;;;;;;;;;16.70;99.90;;;;;;5076276;28;19999;-67
2023/04/20 13:30:21;;;;;;;;;;;16.70;99.90;;;;;;5074552;28;19908;-68
2023/04/20 13:32:48;;;;;;;;;;;16.70;99.90;;;;;;5076168;28;19999;-68
2023/04/20 13:35:15;;;;;;;;;;;16.60;99.90;;;;;;5073668;28;19955;-66
2023/04/20 13:37:43;;;;;;;;;;;16.50;99.90;;;;;;5075737;28;19908;-67
2023/04/20 13:40:10;;;;;;;;;;;16.60;99.90;;;;;;5074782;28;19924;-64
2023/04/20 13:42:36;;;;;;;;;;;16.50;99.90;;;;;;5074672;28;19918;-69
2023/04/20 13:45:03;;;;;;;;;;;16.40;99.90;;;;;;5075498;28;19912;-67
2023/04/20 13:47:30;;;;;;;;;;;16.50;99.90;;;;;;5074788;28;20179;-69
2023/04/20 13:49:57;;;;;;;;;;;16.50;99.90;;;;;;5079880;28;20376;-71
2023/04/20 13:52:23;;;;;;;;;;;16.50;99.90;;;;;;5077250;28;20280;-65
2023/04/20 13:54:50;;;;;;;;;;;16.40;99.90;;;;;;5078938;28;19908;-71
2023/04/20 13:57:17;;;;;;;;;;;16.40;99.90;;;;;;5077938;28;20006;-64
2023/04/20 13:59:43;;;;;;;;;;;16.30;99.90;;;;;;5078938;28;20011;-72
2023/04/20 14:02:10;;;;;;;;;;;16.40;99.90;;;;;;5079292;28;20379;-63
2023/04/20 14:04:37;;;;;;;;;;;16.30;99.90;;;;;;5076587;28;19908;-72
2023/04/20 14:07:03;;;;;;;;;;;16.30;99.90;;;;;;5077828;28;19908;-71
2023/04/20 14:09:30;;;;;;;;;;;16.30;99.90;;;;;;5077421;28;19912;-70
2023/04/20 14:11:57;;;;;;;;;;;16.20;99.90;;;;;;5078575;28;19927;-70
2023/04/20 14:14:24;;;;;;;;;;;16.20;99.90;;;;;;5077219;28;19914;-71
2023/04/20 14:16:50;;;;;;;;;;;16.20;99.90;;;;;;5078968;28;19908;-71